Time;durP1;ratioP1;P1;durP2;ratioP2;P2;SDS_P1;SDS_P2;PMS_P1;PMS_P2;Temp;Humidity;BMP_temperature;BMP_pressure;BME280_temperature;BME280_humidity;BME280_pressure;Samples;Min_cycle;Max_cycle;Signal;HPM_P1;HPM_P2
2022/03/08 00:00:22;;;;;;;5.80;4.35;;;1.90;99.90;;;;;;5065488;28;20073;-75
2022/03/08 00:02:48;;;;;;;8.15;4.40;;;1.80;99.90;;;;;;5063257;28;20036;-75
2022/03/08 00:05:14;;;;;;;9.35;4.53;;;1.80;99.90;;;;;;5062707;28;20759;-75
2022/03/08 00:07:40;;;;;;;9.32;5.45;;;1.70;99.90;;;;;;5064237;28;20051;-75
2022/03/08 00:10:08;;;;;;;7.18;5.05;;;1.70;99.90;;;;;;5062981;28;20041;-75
2022/03/08 00:12:34;;;;;;;6.03;4.40;;;1.80;99.90;;;;;;5067114;28;20123;-75
2022/03/08 00:15:00;;;;;;;6.00;4.15;;;1.70;99.90;;;;;;5061357;28;20048;-75
2022/03/08 00:17:25;;;;;;;7.15;4.63;;;1.80;99.90;;;;;;5060515;28;20044;-75
2022/03/08 00:19:51;;;;;;;5.68;4.40;;;1.80;99.90;;;;;;5061269;28;20045;-75
2022/03/08 00:22:17;;;;;;;6.05;4.63;;;1.80;99.90;;;;;;5063317;28;20515;-75
2022/03/08 00:24:43;;;;;;;7.57;4.60;;;1.70;99.90;;;;;;5060831;28;20052;-75
2022/03/08 00:27:08;;;;;;;8.88;5.00;;;1.80;99.90;;;;;;5062551;28;20049;-75
2022/03/08 00:29:34;;;;;;;8.00;4.53;;;1.80;99.90;;;;;;5044692;28;20048;-75
2022/03/08 00:32:00;;;;;;;8.10;4.47;;;1.70;99.90;;;;;;5062597;28;20091;-75
2022/03/08 00:34:26;;;;;;;8.90;4.60;;;1.60;99.90;;;;;;5065812;28;20044;-75
2022/03/08 00:36:51;;;;;;;7.20;4.60;;;1.70;99.90;;;;;;5068238;28;20033;-75
2022/03/08 00:39:18;;;;;;;9.23;5.75;;;1.60;99.90;;;;;;5065483;28;20552;-75
2022/03/08 00:41:44;;;;;;;7.35;4.60;;;1.50;99.90;;;;;;5066496;28;20559;-75
2022/03/08 00:44:10;;;;;;;8.23;4.20;;;1.50;99.90;;;;;;5066511;28;20135;-75
2022/03/08 00:46:35;;;;;;;8.30;5.13;;;1.50;99.90;;;;;;5064661;28;20047;-75
2022/03/08 00:49:01;;;;;;;6.80;4.50;;;1.50;99.90;;;;;;5066672;28;20036;-75
2022/03/08 00:51:26;;;;;;;9.55;4.95;;;1.60;99.90;;;;;;5065625;28;20049;-75
2022/03/08 00:53:52;;;;;;;7.35;4.85;;;1.40;99.90;;;;;;5066519;28;20044;-75
2022/03/08 00:56:18;;;;;;;6.88;4.95;;;1.40;99.90;;;;;;5067122;28;20093;-75
2022/03/08 00:58:44;;;;;;;8.13;4.50;;;1.40;99.90;;;;;;5066143;28;20032;-75
2022/03/08 01:01:10;;;;;;;5.95;4.65;;;1.60;99.90;;;;;;5065943;28;20083;-75
2022/03/08 01:03:35;;;;;;;8.43;4.72;;;1.30;99.90;;;;;;5064298;28;20041;-75
2022/03/08 01:06:01;;;;;;;12.52;4.63;;;1.20;99.90;;;;;;5068650;28;20071;-75
2022/03/08 01:08:26;;;;;;;7.13;5.00;;;1.20;99.90;;;;;;5069708;28;20110;-75
2022/03/08 01:10:52;;;;;;;8.75;5.30;;;1.40;99.90;;;;;;5066424;28;20052;-75
2022/03/08 01:13:18;;;;;;;8.93;5.47;;;1.00;99.90;;;;;;5068003;28;20135;-75
2022/03/08 01:15:44;;;;;;;6.53;5.03;;;1.00;99.90;;;;;;5068220;28;20593;-75
2022/03/08 01:18:10;;;;;;;6.85;4.40;;;0.80;99.90;;;;;;5051828;28;20040;-75
2022/03/08 01:20:35;;;;;;;6.97;4.80;;;0.80;99.90;;;;;;5066708;28;20040;-75
2022/03/08 01:23:01;;;;;;;5.95;4.45;;;1.00;99.90;;;;;;5066707;28;20040;-75
2022/03/08 01:25:27;;;;;;;7.22;4.93;;;0.90;99.90;;;;;;5078622;28;20097;-75
2022/03/08 01:27:53;;;;;;;7.88;4.22;;;0.60;99.90;;;;;;5066762;28;20031;-75
2022/03/08 01:30:21;;;;;;;7.95;5.45;;;0.60;99.90;;;;;;5065527;28;20433;-75
2022/03/08 01:32:46;;;;;;;8.98;5.60;;;0.60;99.90;;;;;;5064158;28;20045;-75
2022/03/08 01:35:13;;;;;;;8.38;4.93;;;0.50;99.90;;;;;;5065313;28;20037;-75
2022/03/08 01:37:38;;;;;;;7.20;5.15;;;0.50;99.90;;;;;;5063925;28;20033;-75
2022/03/08 01:40:06;;;;;;;8.02;5.53;;;0.60;99.90;;;;;;5065637;28;20033;-75
2022/03/08 01:42:33;;;;;;;6.95;4.78;;;0.60;99.90;;;;;;5068692;28;20048;-75
2022/03/08 01:44:59;;;;;;;8.68;5.55;;;0.60;99.90;;;;;;5062455;28;21075;-75
2022/03/08 01:47:25;;;;;;;7.95;5.72;;;0.70;99.90;;;;;;5067042;28;20040;-75
2022/03/08 01:49:53;;;;;;;9.02;5.72;;;0.70;99.90;;;;;;5064965;28;20083;-75
2022/03/08 01:52:41;;;;;;;11.77;5.22;;;0.70;99.90;;;;;;5066485;28;20043;-75
2022/03/08 01:55:07;;;;;;;7.90;5.60;;;0.70;99.90;;;;;;5065757;28;20087;-75
2022/03/08 01:57:33;;;;;;;8.05;5.82;;;0.70;99.90;;;;;;5067235;28;20093;-75
2022/03/08 01:59:59;;;;;;;9.65;6.07;;;0.80;99.90;;;;;;5066096;28;20083;-75
2022/03/08 02:02:25;;;;;;;7.95;5.38;;;0.70;99.90;;;;;;5065186;28;20056;-75
2022/03/08 02:04:52;;;;;;;9.10;5.60;;;0.70;99.90;;;;;;5066651;28;20398;-75
2022/03/08 02:07:18;;;;;;;8.65;5.15;;;0.70;99.90;;;;;;5063712;28;20044;-75
2022/03/08 02:09:43;;;;;;;9.88;6.63;;;0.70;99.90;;;;;;5065088;28;20039;-75
2022/03/08 02:12:10;;;;;;;11.38;6.55;;;0.80;99.90;;;;;;5064628;28;20048;-76
2022/03/08 02:14:36;;;;;;;10.65;6.65;;;0.90;99.90;;;;;;5066862;28;20037;-75
2022/03/08 02:17:02;;;;;;;10.30;6.15;;;0.90;99.90;;;;;;5063992;28;20032;-75
2022/03/08 02:19:27;;;;;;;9.20;6.30;;;1.00;99.90;;;;;;5065215;28;20036;-75
2022/03/08 02:21:54;;;;;;;10.10;6.75;;;1.10;99.90;;;;;;5066797;28;20415;-75
2022/03/08 02:24:20;;;;;;;9.52;6.03;;;1.10;99.90;;;;;;5049237;28;20562;-75
2022/03/08 02:26:46;;;;;;;10.13;6.95;;;1.20;99.90;;;;;;5063195;28;20523;-75
2022/03/08 02:29:12;;;;;;;11.13;6.93;;;1.40;99.90;;;;;;5066900;28;20040;-75
2022/03/08 02:31:37;;;;;;;12.60;7.07;;;1.40;99.90;;;;;;5067062;28;20044;-75
2022/03/08 02:34:04;;;;;;;10.35;7.22;;;1.20;99.90;;;;;;5063382;28;20067;-75
2022/03/08 02:36:30;;;;;;;10.38;6.60;;;1.20;99.90;;;;;;5065653;28;20483;-75
2022/03/08 02:38:56;;;;;;;9.98;6.80;;;1.20;99.90;;;;;;5066125;28;20049;-75
2022/03/08 02:41:22;;;;;;;10.05;7.05;;;1.10;99.90;;;;;;5065121;28;20036;-75
2022/03/08 02:43:48;;;;;;;13.77;7.20;;;1.10;99.90;;;;;;5065199;28;20132;-75
2022/03/08 02:46:13;;;;;;;11.68;8.20;;;1.10;99.90;;;;;;5063976;28;20120;-75
2022/03/08 02:48:39;;;;;;;9.63;6.55;;;1.10;99.90;;;;;;5064368;28;20049;-75
2022/03/08 02:51:04;;;;;;;12.85;7.32;;;1.00;99.90;;;;;;5062936;28;20040;-75
2022/03/08 02:53:31;;;;;;;11.02;7.47;;;1.10;99.90;;;;;;5063479;28;20052;-75
2022/03/08 02:55:57;;;;;;;10.07;6.88;;;1.00;99.90;;;;;;5063696;28;20048;-75
2022/03/08 02:58:23;;;;;;;11.25;7.80;;;1.00;99.90;;;;;;5065163;28;20115;-75
2022/03/08 03:00:48;;;;;;;12.23;8.05;;;0.90;99.90;;;;;;5061785;28;20123;-75
2022/03/08 03:03:14;;;;;;;12.13;7.97;;;1.00;99.90;;;;;;5063604;28;20044;-75
2022/03/08 03:05:40;;;;;;;10.75;7.47;;;1.00;99.90;;;;;;5065216;28;20037;-75
2022/03/08 03:08:07;;;;;;;16.70;8.27;;;0.90;99.90;;;;;;5065222;28;20392;-75
2022/03/08 03:10:33;;;;;;;13.32;8.30;;;0.90;99.90;;;;;;5064776;28;20039;-75
2022/03/08 03:12:59;;;;;;;10.63;7.82;;;0.90;99.90;;;;;;5063185;28;20075;-75
2022/03/08 03:15:26;;;;;;;11.00;7.63;;;0.90;99.90;;;;;;5065492;28;20189;-75
2022/03/08 03:17:53;;;;;;;10.60;7.90;;;0.90;99.90;;;;;;5061982;28;21291;-75
2022/03/08 03:20:21;;;;;;;11.68;7.80;;;0.90;99.90;;;;;;5063785;28;20110;-75
2022/03/08 03:22:48;;;;;;;12.25;7.85;;;0.80;99.90;;;;;;5065669;28;20036;-75
2022/03/08 03:25:14;;;;;;;12.85;7.97;;;0.80;99.90;;;;;;5061808;28;20044;-75
2022/03/08 03:27:41;;;;;;;12.15;7.60;;;0.70;99.90;;;;;;5065550;28;20488;-75
2022/03/08 03:30:10;;;;;;;11.30;8.50;;;0.70;99.90;;;;;;5063317;28;20480;-75
2022/03/08 03:32:35;;;;;;;12.88;8.35;;;0.50;99.90;;;;;;5065314;28;20051;-75
2022/03/08 03:35:01;;;;;;;15.18;9.35;;;0.60;99.90;;;;;;5066035;28;20052;-74
2022/03/08 03:37:27;;;;;;;12.35;8.40;;;0.60;99.90;;;;;;5065482;28;20047;-75
2022/03/08 03:39:53;;;;;;;12.82;9.52;;;0.70;99.90;;;;;;5064109;28;20051;-75
2022/03/08 03:42:19;;;;;;;13.98;8.90;;;0.70;99.90;;;;;;5066949;28;20036;-74
2022/03/08 03:44:45;;;;;;;18.58;9.60;;;0.60;99.90;;;;;;5065218;28;20040;-74
2022/03/08 03:47:10;;;;;;;12.55;8.38;;;0.60;99.90;;;;;;5063578;28;20138;-75
2022/03/08 03:49:36;;;;;;;15.13;8.93;;;0.70;99.90;;;;;;5064521;28;20041;-75
2022/03/08 03:52:02;;;;;;;13.38;9.63;;;0.70;99.90;;;;;;5061723;28;20052;-75
2022/03/08 03:54:28;;;;;;;13.20;9.00;;;0.70;99.90;;;;;;5060868;28;20048;-75
2022/03/08 03:56:54;;;;;;;12.73;9.18;;;0.70;99.90;;;;;;5063343;28;20041;-75
2022/03/08 03:59:19;;;;;;;13.35;9.63;;;0.70;99.90;;;;;;5066268;28;20108;-75
2022/03/08 04:01:45;;;;;;;15.68;9.50;;;0.70;99.90;;;;;;5064302;28;20537;-75
2022/03/08 04:04:11;;;;;;;13.63;9.52;;;0.70;99.90;;;;;;5067134;28;20048;-75
2022/03/08 04:06:36;;;;;;;12.73;8.80;;;0.70;99.90;;;;;;5069860;28;20045;-75
2022/03/08 04:09:03;;;;;;;14.15;9.48;;;0.70;99.90;;;;;;5068718;28;20037;-75
2022/03/08 04:11:29;;;;;;;13.20;9.23;;;0.70;99.90;;;;;;5072334;28;20067;-75
2022/03/08 04:13:55;;;;;;;15.23;10.25;;;0.70;99.90;;;;;;5078996;28;20401;-75
2022/03/08 04:16:20;;;;;;;16.67;11.23;;;0.80;99.90;;;;;;5075238;28;20033;-75
2022/03/08 04:18:46;;;;;;;13.95;10.05;;;0.70;99.90;;;;;;5072370;28;20024;-75
2022/03/08 04:21:11;;;;;;;16.02;11.45;;;0.80;99.90;;;;;;5071256;28;20036;-75
2022/03/08 04:23:37;;;;;;;15.73;10.80;;;0.90;99.90;;;;;;5069780;28;20052;-75
2022/03/08 04:26:03;;;;;;;15.77;10.13;;;0.80;99.90;;;;;;5070847;28;20051;-75
2022/03/08 04:28:28;;;;;;;14.32;10.05;;;1.00;99.90;;;;;;5068108;28;20044;-75
2022/03/08 04:30:54;;;;;;;16.38;10.93;;;0.80;99.90;;;;;;5068466;28;20044;-75
2022/03/08 04:33:20;;;;;;;13.05;9.35;;;0.80;99.90;;;;;;5065681;28;20094;-74
2022/03/08 04:35:45;;;;;;;15.25;10.00;;;0.80;99.90;;;;;;5068382;28;20847;-74
2022/03/08 04:38:11;;;;;;;15.23;10.63;;;0.80;99.90;;;;;;5068510;28;20178;-75
2022/03/08 04:40:37;;;;;;;13.48;9.07;;;0.80;99.90;;;;;;5069181;28;20025;-75
2022/03/08 04:43:02;;;;;;;15.65;10.18;;;1.00;99.90;;;;;;5068528;28;20068;-74
2022/03/08 04:45:28;;;;;;;14.40;10.73;;;1.00;99.90;;;;;;5051856;28;20049;-75
2022/03/08 04:47:54;;;;;;;15.00;10.07;;;0.80;99.90;;;;;;5067445;28;20056;-74
2022/03/08 04:50:19;;;;;;;14.18;10.25;;;0.80;99.90;;;;;;5068792;28;20044;-75
2022/03/08 04:52:48;;;;;;;17.73;10.43;;;0.70;99.90;;;;;;5068504;28;20033;-74
2022/03/08 04:55:14;;;;;;;15.93;10.15;;;0.70;99.90;;;;;;5050794;28;20143;-74
2022/03/08 04:57:40;;;;;;;15.50;11.05;;;0.70;99.90;;;;;;5068961;28;20036;-74
2022/03/08 05:00:11;;;;;;;15.55;10.35;;;0.70;99.90;;;;;;5066966;28;20115;-74
2022/03/08 05:02:38;;;;;;;17.38;10.40;;;0.70;99.90;;;;;;5069565;28;20087;-75
2022/03/08 05:05:08;;;;;;;13.05;10.25;;;0.60;99.90;;;;;;5067015;28;20063;-74
2022/03/08 05:07:35;;;;;;;14.70;11.13;;;0.60;99.90;;;;;;5068807;28;20045;-75
2022/03/08 05:10:03;;;;;;;16.52;10.35;;;0.60;99.90;;;;;;5066857;28;20467;-74
2022/03/08 05:12:29;;;;;;;17.33;10.52;;;0.70;99.90;;;;;;5067637;28;20119;-75
2022/03/08 05:14:55;;;;;;;14.35;10.85;;;0.50;99.90;;;;;;5069456;28;20090;-74
2022/03/08 05:17:21;;;;;;;14.88;11.07;;;0.60;99.90;;;;;;5066660;28;20045;-74
2022/03/08 05:19:47;;;;;;;15.13;11.10;;;0.60;99.90;;;;;;5065335;28;20042;-74
2022/03/08 05:22:13;;;;;;;14.57;10.38;;;0.50;99.90;;;;;;5066233;28;20098;-74
2022/03/08 05:24:39;;;;;;;16.92;11.77;;;0.50;99.90;;;;;;5069420;28;20040;-74
2022/03/08 05:27:05;;;;;;;15.70;11.18;;;0.50;99.90;;;;;;5066676;28;20139;-74
2022/03/08 05:29:31;;;;;;;16.45;11.13;;;0.50;99.90;;;;;;5067973;28;20048;-74
2022/03/08 05:31:57;;;;;;;18.15;10.77;;;0.40;99.90;;;;;;5069617;28;20040;-74
2022/03/08 05:34:23;;;;;;;17.23;11.43;;;0.40;99.90;;;;;;5067322;28;20495;-74
2022/03/08 05:36:48;;;;;;;14.00;10.65;;;-0.60;99.90;;;;;;5068883;28;20434;-74
2022/03/08 05:39:14;;;;;;;17.42;10.90;;;0.30;99.90;;;;;;5069363;28;20052;-75
2022/03/08 05:41:40;;;;;;;16.00;10.70;;;0.50;99.90;;;;;;5065854;28;20049;-74
2022/03/08 05:44:06;;;;;;;18.02;11.20;;;0.20;99.90;;;;;;5069004;28;20132;-74
2022/03/08 05:46:32;;;;;;;16.85;10.32;;;0.30;99.90;;;;;;5067767;28;20047;-74
2022/03/08 05:48:58;;;;;;;17.15;10.65;;;0.30;99.90;;;;;;5082294;28;20064;-74
2022/03/08 05:51:24;;;;;;;18.33;10.63;;;0.40;99.90;;;;;;5064589;28;20072;-74
2022/03/08 05:53:49;;;;;;;14.45;11.13;;;0.40;99.90;;;;;;5067396;28;20032;-74
2022/03/08 05:56:15;;;;;;;15.75;10.63;;;0.40;99.90;;;;;;5067815;28;20036;-74
2022/03/08 05:58:41;;;;;;;15.32;11.02;;;0.50;99.90;;;;;;5066899;28;20086;-74
2022/03/08 06:01:06;;;;;;;14.13;10.15;;;0.40;99.90;;;;;;5061869;28;20043;-74
2022/03/08 06:03:32;;;;;;;15.38;9.98;;;0.30;99.90;;;;;;5064693;28;20102;-74
2022/03/08 06:05:57;;;;;;;15.27;9.95;;;0.40;99.90;;;;;;5065610;28;20131;-76
2022/03/08 06:08:23;;;;;;;14.73;10.30;;;0.40;99.90;;;;;;5067881;28;20048;-75
2022/03/08 06:10:49;;;;;;;13.77;9.50;;;0.40;99.90;;;;;;5067483;28;20033;-75
2022/03/08 06:13:14;;;;;;;15.98;9.55;;;0.40;99.90;;;;;;5066837;28;20040;-75
2022/03/08 06:15:40;;;;;;;14.45;10.02;;;0.40;99.90;;;;;;5067337;28;20564;-75
2022/03/08 06:18:06;;;;;;;15.52;11.25;;;0.40;99.90;;;;;;5065506;28;20625;-75
2022/03/08 06:20:31;;;;;;;15.88;9.65;;;0.50;99.90;;;;;;5066521;28;20123;-75
2022/03/08 06:22:57;;;;;;;17.67;10.50;;;0.50;99.90;;;;;;5064682;28;20040;-75
2022/03/08 06:25:23;;;;;;;13.70;9.70;;;0.40;99.90;;;;;;5063785;28;20051;-75
2022/03/08 06:27:49;;;;;;;14.35;10.00;;;0.40;99.90;;;;;;5063337;28;20036;-75
2022/03/08 06:30:14;;;;;;;16.95;10.00;;;0.50;99.90;;;;;;5064166;28;20055;-75
2022/03/08 06:32:40;;;;;;;13.27;9.05;;;0.60;99.90;;;;;;5065219;28;20068;-75
2022/03/08 06:35:06;;;;;;;12.02;9.25;;;0.80;99.90;;;;;;5062809;28;20054;-75
2022/03/08 06:37:31;;;;;;;13.60;9.45;;;0.90;99.90;;;;;;5067052;28;20067;-75
2022/03/08 06:39:57;;;;;;;15.13;9.38;;;1.10;99.90;;;;;;5064750;28;20165;-75
2022/03/08 06:42:23;;;;;;;13.25;8.20;;;1.20;99.90;;;;;;5062872;28;20036;-76
2022/03/08 06:44:48;;;;;;;12.57;8.35;;;1.50;99.90;;;;;;5064513;28;20941;-76
2022/03/08 06:47:14;;;;;;;10.13;7.90;;;1.90;99.90;;;;;;5063121;28;20079;-76
2022/03/08 06:49:41;;;;;;;13.60;9.32;;;2.30;99.90;;;;;;5062437;28;20040;-76
2022/03/08 06:52:08;;;;;;;14.93;8.20;;;2.70;99.90;;;;;;5063001;28;20041;-77
2022/03/08 06:54:34;;;;;;;10.30;7.63;;;3.10;99.90;;;;;;5061149;28;20072;-77
2022/03/08 06:57:00;;;;;;;14.35;8.63;;;3.60;99.90;;;;;;5063989;28;20126;-77
2022/03/08 06:59:26;;;;;;;10.93;7.85;;;3.70;99.90;;;;;;5065784;28;20071;-77
2022/03/08 07:01:52;;;;;;;12.10;8.32;;;3.90;99.80;;;;;;5068986;28;20689;-74
2022/03/08 07:04:18;;;;;;;11.75;8.48;;;3.80;99.10;;;;;;5065285;28;20044;-75
2022/03/08 07:06:45;;;;;;;9.88;8.18;;;3.90;98.70;;;;;;5064326;28;20072;-74
2022/03/08 07:09:10;;;;;;;9.43;8.02;;;3.80;97.80;;;;;;5066836;28;20556;-76
2022/03/08 07:11:36;;;;;;;9.88;7.63;;;3.80;97.50;;;;;;5073236;28;20114;-75
2022/03/08 07:14:03;;;;;;;10.27;7.47;;;3.70;98.00;;;;;;5062512;28;20093;-75
2022/03/08 07:16:29;;;;;;;18.77;8.73;;;3.90;97.20;;;;;;5066966;28;20039;-74
2022/03/08 07:18:54;;;;;;;12.68;7.63;;;3.90;97.20;;;;;;5065471;28;20045;-75
2022/03/08 07:21:20;;;;;;;9.68;7.60;;;3.80;97.20;;;;;;5065523;28;20166;-75
2022/03/08 07:23:46;;;;;;;9.93;7.60;;;3.80;97.20;;;;;;5066088;28;20790;-74
2022/03/08 07:26:11;;;;;;;10.85;8.30;;;3.90;96.70;;;;;;5064954;28;20055;-74
2022/03/08 07:28:37;;;;;;;8.90;7.88;;;4.10;96.70;;;;;;5064450;28;20039;-75
2022/03/08 07:31:03;;;;;;;12.77;7.75;;;4.10;96.30;;;;;;5058354;28;20033;-74
2022/03/08 07:33:30;;;;;;;10.10;7.53;;;3.90;96.40;;;;;;5092289;28;20491;-74
2022/03/08 07:35:56;;;;;;;11.57;7.93;;;3.80;96.60;;;;;;5061997;28;20040;-74
2022/03/08 07:38:21;;;;;;;10.30;7.93;;;3.60;97.30;;;;;;5059203;28;20483;-74
2022/03/08 07:40:47;;;;;;;9.90;7.90;;;3.60;97.20;;;;;;5063174;28;20037;-74
2022/03/08 07:43:13;;;;;;;10.40;7.30;;;3.60;98.10;;;;;;5061330;28;20029;-74
2022/03/08 07:45:39;;;;;;;10.93;7.68;;;3.50;98.30;;;;;;5063495;28;20092;-75
2022/03/08 07:48:08;;;;;;;11.98;8.65;;;3.50;98.80;;;;;;5057765;28;20487;-74
2022/03/08 07:50:37;;;;;;;11.40;8.07;;;3.60;98.50;;;;;;5055995;28;20075;-74
2022/03/08 07:53:04;;;;;;;10.63;7.72;;;3.60;99.60;;;;;;5066913;28;20025;-74
2022/03/08 07:55:30;;;;;;;10.35;8.18;;;3.50;98.60;;;;;;5063818;28;20055;-74
2022/03/08 07:58:00;;;;;;;14.40;8.27;;;3.40;98.50;;;;;;5061744;28;20404;-74
2022/03/08 08:00:26;;;;;;;9.60;8.00;;;3.40;98.60;;;;;;5063573;28;20870;-74
2022/03/08 08:02:52;;;;;;;9.05;6.82;;;3.50;99.40;;;;;;5066866;28;20037;-74
2022/03/08 08:05:18;;;;;;;11.93;7.43;;;3.60;98.90;;;;;;5067551;28;20384;-74
2022/03/08 08:07:45;;;;;;;12.93;7.95;;;3.70;99.40;;;;;;5067110;28;20073;-74
2022/03/08 08:10:11;;;;;;;10.25;7.63;;;3.70;99.10;;;;;;5067469;28;20040;-74
2022/03/08 08:12:37;;;;;;;11.23;8.45;;;3.80;99.00;;;;;;5065240;28;20504;-74
2022/03/08 08:15:04;;;;;;;10.60;7.30;;;3.90;98.50;;;;;;5061144;28;20041;-74
2022/03/08 08:17:30;;;;;;;10.80;6.78;;;3.90;98.40;;;;;;5064913;28;20047;-74
2022/03/08 08:19:56;;;;;;;13.10;7.28;;;4.00;99.00;;;;;;5062807;28;20048;-74
2022/03/08 08:22:22;;;;;;;10.40;6.32;;;4.10;98.10;;;;;;5065144;28;20040;-74
2022/03/08 08:24:48;;;;;;;8.77;7.85;;;4.10;97.80;;;;;;5065570;28;20041;-74
2022/03/08 08:27:13;;;;;;;8.35;7.55;;;4.30;98.60;;;;;;5067114;28;20048;-74
2022/03/08 08:29:39;;;;;;;9.13;7.63;;;4.40;97.10;;;;;;5064463;28;20044;-74
2022/03/08 08:32:06;;;;;;;7.78;6.80;;;4.40;96.40;;;;;;5064330;28;20076;-74
2022/03/08 08:34:32;;;;;;;9.07;6.25;;;4.50;96.90;;;;;;5094915;28;20127;-74
2022/03/08 08:36:58;;;;;;;13.60;7.15;;;4.60;96.70;;;;;;5066300;28;20083;-74
2022/03/08 08:39:24;;;;;;;11.82;6.88;;;4.70;96.90;;;;;;5058658;28;20387;-74
2022/03/08 08:41:50;;;;;;;10.13;6.82;;;4.80;97.30;;;;;;5061887;28;20626;-74
2022/03/08 08:44:16;;;;;;;8.07;6.78;;;4.90;95.80;;;;;;5058715;28;20825;-74
2022/03/08 08:46:41;;;;;;;7.80;6.88;;;5.00;96.20;;;;;;5065727;28;20072;-74
2022/03/08 08:49:07;;;;;;;9.10;6.53;;;5.10;96.30;;;;;;5079715;28;20037;-75
2022/03/08 08:51:33;;;;;;;8.43;6.85;;;5.30;96.00;;;;;;5063844;28;20059;-74
2022/03/08 08:54:00;;;;;;;9.57;6.68;;;5.30;96.40;;;;;;5064399;28;20800;-74
2022/03/08 08:56:26;;;;;;;7.75;6.88;;;5.50;95.50;;;;;;5065752;28;20115;-74
2022/03/08 08:58:52;;;;;;;9.63;6.75;;;5.60;94.90;;;;;;5067201;28;20031;-75
2022/03/08 09:01:18;;;;;;;8.50;6.88;;;5.70;95.60;;;;;;5068552;28;20463;-75
2022/03/08 09:03:44;;;;;;;8.45;6.25;;;5.80;95.60;;;;;;5071740;28;20135;-75
2022/03/08 09:06:09;;;;;;;8.38;7.28;;;6.00;94.00;;;;;;5064475;28;20040;-75
2022/03/08 09:08:35;;;;;;;10.70;7.13;;;6.00;92.40;;;;;;5067252;28;20067;-75
2022/03/08 09:11:01;;;;;;;10.07;6.50;;;6.00;92.30;;;;;;5065993;28;20499;-75
2022/03/08 09:13:27;;;;;;;7.82;6.43;;;6.10;91.60;;;;;;5066338;28;20037;-75
2022/03/08 09:15:53;;;;;;;11.25;7.75;;;6.20;90.80;;;;;;5068984;28;20040;-75
2022/03/08 09:18:18;;;;;;;7.47;6.68;;;6.20;90.70;;;;;;5067108;28;20426;-75
2022/03/08 09:20:45;;;;;;;8.40;5.90;;;6.30;90.60;;;;;;5068746;28;20020;-75
2022/03/08 09:23:11;;;;;;;8.20;6.30;;;6.40;90.40;;;;;;5063110;28;20048;-75
2022/03/08 09:25:37;;;;;;;7.55;6.22;;;6.50;90.60;;;;;;5065545;28;20040;-75
2022/03/08 09:28:05;;;;;;;8.27;6.47;;;6.50;87.80;;;;;;5050808;28;20032;-75
2022/03/08 09:30:31;;;;;;;8.43;5.85;;;6.50;89.10;;;;;;5048673;28;20044;-75
2022/03/08 09:32:58;;;;;;;6.72;5.78;;;6.60;85.90;;;;;;5064765;28;20044;-75
2022/03/08 09:35:26;;;;;;;9.10;6.00;;;6.70;87.40;;;;;;5068646;28;20045;-75
2022/03/08 09:37:53;;;;;;;7.53;5.72;;;6.80;89.60;;;;;;5066290;28;20033;-75
2022/03/08 09:40:19;;;;;;;7.93;5.80;;;6.90;89.00;;;;;;5067221;28;20067;-75
2022/03/08 09:42:45;;;;;;;9.80;5.72;;;7.00;86.00;;;;;;5068185;28;20044;-76
2022/03/08 09:45:11;;;;;;;7.20;5.72;;;7.10;86.00;;;;;;5069058;28;20495;-76
2022/03/08 09:47:38;;;;;;;6.47;4.85;;;7.00;85.80;;;;;;5067136;28;20969;-76
2022/03/08 09:50:05;;;;;;;6.28;5.15;;;7.00;82.50;;;;;;5065689;28;20048;-76
2022/03/08 09:52:35;;;;;;;7.03;4.97;;;7.10;82.60;;;;;;5065722;28;20135;-75
2022/03/08 09:55:01;;;;;;;5.40;4.35;;;7.20;83.00;;;;;;5067780;28;20044;-75
2022/03/08 09:57:26;;;;;;;5.65;4.70;;;7.40;82.30;;;;;;5068016;28;20048;-76
2022/03/08 09:59:52;;;;;;;6.20;4.95;;;7.50;79.90;;;;;;5068652;28;20034;-76
2022/03/08 10:02:19;;;;;;;7.70;5.05;;;7.50;78.60;;;;;;5069375;28;20036;-75
2022/03/08 10:05:01;;;;;;;6.90;4.97;;;7.50;79.90;;;;;;5070167;28;20087;-75
2022/03/08 10:07:27;;;;;;;6.30;4.65;;;7.60;80.40;;;;;;5105685;28;20052;-74
2022/03/08 10:09:59;;;;;;;6.18;5.00;;;7.80;78.40;;;;;;5087026;28;20045;-75
2022/03/08 10:12:26;;;;;;;5.53;4.43;;;7.70;77.90;;;;;;5070124;28;20032;-74
2022/03/08 10:14:51;;;;;;;8.85;5.03;;;7.90;78.30;;;;;;5070740;28;20064;-75
2022/03/08 10:17:38;;;;;;;5.10;4.60;;;7.80;75.60;;;;;;5067587;28;20376;-74
2022/03/08 10:20:07;;;;;;;6.00;4.72;;;7.90;77.50;;;;;;5068213;28;20032;-74
2022/03/08 10:22:37;;;;;;;7.05;4.88;;;8.00;75.10;;;;;;5095662;28;20040;-75
2022/03/08 10:25:24;;;;;;;4.70;4.30;;;7.90;73.90;;;;;;5066182;28;20045;-75
2022/03/08 10:27:56;;;;;;;6.80;4.35;;;8.00;74.30;;;;;;5065506;28;20491;-75
2022/03/08 10:30:29;;;;;;;7.45;4.90;;;7.90;72.90;;;;;;5065057;28;20044;-75
2022/03/08 10:32:59;;;;;;;7.47;5.20;;;8.30;76.30;;;;;;5064116;28;20047;-75
2022/03/08 10:35:31;;;;;;;5.60;4.22;;;8.10;74.60;;;;;;5065454;28;20047;-75
2022/03/08 10:38:04;;;;;;;8.20;4.93;;;8.00;70.10;;;;;;5066516;28;20040;-75
2022/03/08 10:40:32;;;;;;;7.30;5.10;;;8.10;73.90;;;;;;5095574;28;20365;-74
2022/03/08 10:43:06;;;;;;;8.93;4.88;;;8.20;72.70;;;;;;5065354;28;20555;-75
2022/03/08 10:45:34;;;;;;;11.90;4.95;;;8.40;75.00;;;;;;5065024;28;20044;-75
2022/03/08 10:48:05;;;;;;;7.50;4.70;;;9.20;74.10;;;;;;5080695;28;20638;-75
2022/03/08 10:50:32;;;;;;;6.63;4.57;;;8.50;70.10;;;;;;5061242;28;20049;-75
2022/03/08 10:52:59;;;;;;;5.65;4.13;;;8.60;70.10;;;;;;5066279;28;20049;-75
2022/03/08 10:55:26;;;;;;;7.60;4.40;;;8.90;72.80;;;;;;5066714;28;20033;-75
2022/03/08 10:57:57;;;;;;;5.38;4.32;;;8.90;68.70;;;;;;5066018;28;20133;-74
2022/03/08 11:00:32;;;;;;;5.10;4.15;;;8.80;68.10;;;;;;5067197;28;20063;-75
2022/03/08 11:03:00;;;;;;;4.80;3.50;;;9.00;68.10;;;;;;5065237;28;20020;-74
2022/03/08 11:05:28;;;;;;;3.97;3.58;;;9.20;66.40;;;;;;5065356;28;20037;-74
2022/03/08 11:07:57;;;;;;;9.00;3.75;;;9.40;65.70;;;;;;5063825;28;20054;-75
2022/03/08 11:10:23;;;;;;;3.97;3.45;;;9.60;62.50;;;;;;5066486;28;20044;-75
2022/03/08 11:12:49;;;;;;;4.97;4.13;;;9.70;62.30;;;;;;5066372;28;20036;-75
2022/03/08 11:15:18;;;;;;;6.45;3.70;;;9.20;63.80;;;;;;5065496;28;20044;-75
2022/03/08 11:17:46;;;;;;;7.43;4.00;;;9.10;63.20;;;;;;5066435;28;20162;-74
2022/03/08 11:20:13;;;;;;;6.72;4.22;;;9.00;63.40;;;;;;5094919;28;20055;-74
2022/03/08 11:22:39;;;;;;;4.07;3.70;;;9.00;64.60;;;;;;5067085;28;20495;-74
2022/03/08 11:25:07;;;;;;;5.97;3.03;;;9.20;65.50;;;;;;5067088;28;20044;-74
2022/03/08 11:27:35;;;;;;;5.60;4.40;;;9.20;62.80;;;;;;5069242;28;20049;-74
2022/03/08 11:30:02;;;;;;;5.40;3.00;;;9.20;64.90;;;;;;5066488;28;20085;-74
2022/03/08 11:32:35;;;;;;;4.47;3.20;;;9.30;65.90;;;;;;5067041;28;20095;-74
2022/03/08 11:35:14;;;;;;;5.57;3.47;;;9.50;63.50;;;;;;5068131;28;20043;-75
2022/03/08 11:37:44;;;;;;;4.95;3.65;;;9.20;62.50;;;;;;5066893;28;20182;-75
2022/03/08 11:40:15;;;;;;;6.38;2.72;;;9.30;63.30;;;;;;5064320;28;20364;-75
2022/03/08 11:42:45;;;;;;;6.05;3.30;;;9.20;62.60;;;;;;5066694;28;20052;-75
2022/03/08 11:45:20;;;;;;;6.30;2.92;;;9.10;61.40;;;;;;5098299;28;20052;-74
2022/03/08 11:47:54;;;;;;;5.25;3.28;;;9.10;62.20;;;;;;5050511;28;20083;-75
2022/03/08 11:50:25;;;;;;;4.93;3.17;;;9.30;64.10;;;;;;5046703;28;20076;-74
2022/03/08 11:53:06;;;;;;;5.50;3.15;;;9.50;65.50;;;;;;5062418;28;20050;-74
2022/03/08 11:55:35;;;;;;;4.55;3.03;;;9.60;66.00;;;;;;5065128;28;20076;-75
2022/03/08 11:58:40;;;;;;;3.88;2.47;;;9.60;62.50;;;;;;5065630;28;20890;-75
2022/03/08 12:01:06;;;;;;;5.05;2.45;;;9.50;62.90;;;;;;5065406;28;20025;-74
2022/03/08 12:03:32;;;;;;;3.97;2.92;;;9.80;64.10;;;;;;5066429;28;20067;-75
2022/03/08 12:05:58;;;;;;;5.10;2.63;;;10.00;64.80;;;;;;5066125;28;20155;-75
2022/03/08 12:08:27;;;;;;;3.35;2.33;;;9.90;62.20;;;;;;5065415;28;20044;-75
2022/03/08 12:10:58;;;;;;;4.53;2.22;;;9.70;59.70;;;;;;5061113;28;20033;-75
2022/03/08 12:13:32;;;;;;;6.20;2.83;;;9.80;62.50;;;;;;5067090;28;20033;-75
2022/03/08 12:16:07;;;;;;;4.03;2.25;;;9.60;58.90;;;;;;5066873;28;20711;-75
2022/03/08 12:18:34;;;;;;;4.18;2.38;;;9.60;59.60;;;;;;5063673;28;20045;-75
2022/03/08 12:21:17;;;;;;;3.45;2.50;;;9.60;59.80;;;;;;5064209;28;20072;-74
2022/03/08 12:24:04;;;;;;;8.57;2.53;;;9.80;60.90;;;;;;5056366;28;20105;-74
2022/03/08 12:26:37;;;;;;;3.25;2.35;;;10.00;60.90;;;;;;5063267;28;20040;-74
2022/03/08 12:29:22;;;;;;;3.13;1.92;;;10.00;60.50;;;;;;5064224;28;20044;-74
2022/03/08 12:32:05;;;;;;;7.80;2.20;;;10.20;61.10;;;;;;5065874;28;20040;-74
2022/03/08 12:34:39;;;;;;;4.65;2.28;;;10.20;60.50;;;;;;5068242;28;20163;-74
2022/03/08 12:37:06;;;;;;;3.47;1.92;;;10.20;61.90;;;;;;5068028;28;20055;-74
2022/03/08 12:39:56;;;;;;;2.63;2.10;;;10.40;60.40;;;;;;5067887;28;20028;-75
2022/03/08 12:42:33;;;;;;;5.18;2.08;;;10.00;57.40;;;;;;5069541;28;20129;-75
2022/03/08 12:44:58;;;;;;;5.28;2.20;;;10.00;60.00;;;;;;5067320;28;20610;-74
2022/03/08 12:47:26;;;;;;;3.17;2.13;;;10.30;61.10;;;;;;5067090;28;20048;-74
2022/03/08 12:49:52;;;;;;;6.50;2.38;;;10.30;59.10;;;;;;5070302;28;20052;-74